Time,TemperatureF,DewpointF,PressureIn,WindDirection,WindDirectionDegrees,WindSpeedMPH,WindSpeedGustMPH,Humidity,HourlyPrecipIn,Conditions,Clouds,dailyrainin,SoftwareType,DateUTC
2013-01-13 00:00:00,58.2,57.1,30.10,SSW,202,0.0,0.0,96,0.00,,,0.00,Wunderground v.1.15,2013-01-13 05:00:00,
2013-01-13 00:01:00,58.1,57.0,30.10,SSW,202,0.0,0.0,96,0.00,,,0.00,Wunderground v.1.15,2013-01-13 05:01:00,
2013-01-13 00:03:00,58.1,57.3,30.10,SSW,202,0.0,0.0,97,0.00,,,0.00,Wunderground v.1.15,2013-01-13 05:03:00,
2013-01-13 00:07:00,58.0,56.9,30.10,SSW,202,0.0,0.0,96,0.00,,,0.00,Wunderground v.1.15,2013-01-13 05:07:00,
2013-01-13 00:13:00,58.0,57.2,30.10,SSW,202,0.0,0.0,97,0.00,,,0.00,Wunderground v.1.15,2013-01-13 05:13:00,
2013-01-13 00:18:00,58.2,57.4,30.10,SSW,202,0.0,0.0,97,0.00,,,0.00,Wunderground v.1.15,2013-01-13 05:18:00,
2013-01-13 00:24:00,58.6,57.8,30.10,SSW,202,0.0,0.0,97,0.00,,,0.00,Wunderground v.1.15,2013-01-13 05:24:00,
2013-01-13 00:30:00,58.8,58.0,30.10,SSW,202,0.0,0.0,97,0.00,,,0.00,Wunderground v.1.15,2013-01-13 05:30:00,
2013-01-13 00:36:00,58.9,58.1,30.09,SSW,202,0.0,0.0,97,0.00,,,0.00,Wunderground v.1.15,2013-01-13 05:36:00,
2013-01-13 00:41:00,58.8,58.0,30.09,SSW,202,0.0,0.0,97,0.00,,,0.00,Wunderground v.1.15,2013-01-13 05:41:00,
2013-01-13 00:47:00,58.7,57.9,30.09,SSW,202,0.0,0.0,97,0.00,,,0.00,Wunderground v.1.15,2013-01-13 05:47:00,
2013-01-13 00:53:00,58.6,57.8,30.09,SSW,202,0.0,0.0,97,0.00,,,0.00,Wunderground v.1.15,2013-01-13 05:53:00,
2013-01-13 00:59:00,58.7,57.9,30.09,SSW,202,0.0,0.0,97,0.00,,,0.00,Wunderground v.1.15,2013-01-13 05:59:00,
2013-01-13 01:04:00,58.6,57.8,30.09,SSW,202,0.0,0.0,97,0.00,,,0.00,Wunderground v.1.15,2013-01-13 06:04:00,
2013-01-13 01:10:00,58.5,57.7,30.10,SSW,202,0.0,0.0,97,0.00,,,0.00,Wunderground v.1.15,2013-01-13 06:10:00,
2013-01-13 01:16:00,58.6,57.8,30.10,SSW,202,0.0,0.0,97,0.00,,,0.00,Wunderground v.1.15,2013-01-13 06:16:00,
2013-01-13 01:21:00,58.4,57.6,30.10,SSW,202,0.0,0.0,97,0.00,,,0.00,Wunderground v.1.15,2013-01-13 06:21:00,
2013-01-13 01:27:00,58.5,57.7,30.10,SSW,202,0.0,0.0,97,0.00,,,0.00,Wunderground v.1.15,2013-01-13 06:27:00,
2013-01-13 01:33:00,58.5,57.7,30.10,SSW,202,0.0,0.0,97,0.00,,,0.00,Wunderground v.1.15,2013-01-13 06:33:00,
2013-01-13 01:39:00,58.1,57.3,30.10,SSW,202,0.0,0.0,97,0.00,,,0.00,Wunderground v.1.15,2013-01-13 06:39:00,
2013-01-13 01:44:00,58.2,57.4,30.10,SSW,202,0.0,0.0,97,0.00,,,0.00,Wunderground v.1.15,2013-01-13 06:44:00,
2013-01-13 01:50:00,57.5,56.7,30.10,SSW,202,0.0,0.0,97,0.00,,,0.00,Wunderground v.1.15,2013-01-13 06:50:00,
2013-01-13 01:56:00,57.2,56.4,30.11,SSW,202,0.0,0.0,97,0.00,,,0.00,Wunderground v.1.15,2013-01-13 06:56:00,
2013-01-13 02:02:00,57.4,56.6,30.11,SSW,202,0.0,0.0,97,0.00,,,0.00,Wunderground v.1.15,2013-01-13 07:02:00,
2013-01-13 02:07:00,57.7,57.1,30.10,SSW,202,0.0,0.0,98,0.00,,,0.00,Wunderground v.1.15,2013-01-13 07:07:00,
2013-01-13 02:13:00,57.2,56.4,30.10,SSW,202,0.0,0.0,97,0.00,,,0.00,Wunderground v.1.15,2013-01-13 07:13:00,
2013-01-13 02:19:00,57.0,56.2,30.10,SSW,202,0.0,0.0,97,0.00,,,0.00,Wunderground v.1.15,2013-01-13 07:19:00,
2013-01-13 02:24:00,57.2,56.4,30.10,SSW,202,0.0,0.0,97,0.00,,,0.00,Wunderground v.1.15,2013-01-13 07:24:00,
2013-01-13 02:30:00,57.3,56.7,30.10,SSW,202,0.0,0.0,98,0.00,,,0.00,Wunderground v.1.15,2013-01-13 07:30:00,
2013-01-13 02:36:00,57.3,56.7,30.10,SSW,202,0.0,0.0,98,0.00,,,0.01,Wunderground v.1.15,2013-01-13 07:36:00,
2013-01-13 02:42:00,57.1,56.5,30.10,SSW,202,0.0,0.0,98,0.00,,,0.01,Wunderground v.1.15,2013-01-13 07:42:00,
2013-01-13 02:48:00,57.0,56.2,30.10,SSW,202,0.0,0.0,97,0.00,,,0.01,Wunderground v.1.15,2013-01-13 07:48:00,
2013-01-13 02:53:00,57.0,56.4,30.10,SSW,202,0.0,0.0,98,0.00,,,0.01,Wunderground v.1.15,2013-01-13 07:53:00,
2013-01-13 02:59:00,57.1,56.5,30.10,SSW,202,0.0,0.0,98,0.00,,,0.01,Wunderground v.1.15,2013-01-13 07:59:00,
2013-01-13 03:05:00,57.0,56.4,30.09,SSW,202,0.0,0.0,98,0.00,,,0.01,Wunderground v.1.15,2013-01-13 08:05:00,
2013-01-13 03:10:00,56.7,55.9,30.09,SSW,202,0.0,1.0,97,0.00,,,0.01,Wunderground v.1.15,2013-01-13 08:10:00,
2013-01-13 03:16:00,56.5,55.7,30.09,SSW,202,0.0,1.0,97,0.00,,,0.01,Wunderground v.1.15,2013-01-13 08:16:00,
2013-01-13 03:22:00,56.4,55.6,30.09,SSW,202,0.0,0.0,97,0.00,,,0.01,Wunderground v.1.15,2013-01-13 08:22:00,
2013-01-13 03:28:00,56.3,55.5,30.09,SSW,202,0.0,0.0,97,0.00,,,0.01,Wunderground v.1.15,2013-01-13 08:28:00,
2013-01-13 03:33:00,56.3,55.5,30.09,SSW,202,0.0,0.0,97,0.00,,,0.01,Wunderground v.1.15,2013-01-13 08:33:00,
2013-01-13 03:39:00,56.3,55.5,30.09,SSW,202,0.0,0.0,97,0.00,,,0.01,Wunderground v.1.15,2013-01-13 08:39:00,
2013-01-13 03:45:00,56.2,55.4,30.09,SSW,202,0.0,0.0,97,0.00,,,0.01,Wunderground v.1.15,2013-01-13 08:45:00,
2013-01-13 03:51:00,56.3,55.5,30.09,SSW,202,0.0,0.0,97,0.00,,,0.01,Wunderground v.1.15,2013-01-13 08:51:00,
2013-01-13 03:57:00,56.2,55.4,30.09,SSW,202,0.0,0.0,97,0.00,,,0.01,Wunderground v.1.15,2013-01-13 08:57:00,
2013-01-13 04:02:00,56.2,55.4,30.09,SSW,202,0.0,0.0,97,0.00,,,0.01,Wunderground v.1.15,2013-01-13 09:02:00,
2013-01-13 04:08:00,56.1,55.5,30.08,SSW,202,0.0,0.0,98,0.00,,,0.01,Wunderground v.1.15,2013-01-13 09:08:00,
2013-01-13 04:14:00,55.9,55.1,30.08,SSW,202,0.0,0.0,97,0.00,,,0.01,Wunderground v.1.15,2013-01-13 09:14:00,
2013-01-13 04:19:00,55.9,55.3,30.08,SSW,202,0.0,0.0,98,0.00,,,0.01,Wunderground v.1.15,2013-01-13 09:19:00,
2013-01-13 04:25:00,55.6,54.8,30.08,SSW,202,0.0,0.0,97,0.00,,,0.01,Wunderground v.1.15,2013-01-13 09:25:00,
2013-01-13 04:31:00,55.5,54.7,30.08,SSW,202,0.0,0.0,97,0.00,,,0.01,Wunderground v.1.15,2013-01-13 09:31:00,
2013-01-13 04:37:00,55.4,54.6,30.08,SSW,202,0.0,0.0,97,0.00,,,0.01,Wunderground v.1.15,2013-01-13 09:37:00,
2013-01-13 04:42:00,55.5,54.9,30.08,SSW,202,0.0,0.0,98,0.00,,,0.01,Wunderground v.1.15,2013-01-13 09:42:00,
2013-01-13 04:48:00,55.5,54.7,30.08,SSW,202,0.0,0.0,97,0.00,,,0.01,Wunderground v.1.15,2013-01-13 09:48:00,
2013-01-13 04:54:00,55.5,54.9,30.08,SSW,202,0.0,0.0,98,0.00,,,0.01,Wunderground v.1.15,2013-01-13 09:54:00,
2013-01-13 05:00:00,55.5,54.9,30.08,SSW,202,0.0,0.0,98,0.00,,,0.01,Wunderground v.1.15,2013-01-13 10:00:00,
2013-01-13 05:06:00,55.3,54.7,30.08,SSW,202,0.0,0.0,98,0.00,,,0.01,Wunderground v.1.15,2013-01-13 10:06:00,
2013-01-13 05:11:00,55.1,54.5,30.08,SSW,202,0.0,0.0,98,0.00,,,0.01,Wunderground v.1.15,2013-01-13 10:11:00,
2013-01-13 05:17:00,55.1,54.3,30.08,SSW,202,0.0,0.0,97,0.00,,,0.01,Wunderground v.1.15,2013-01-13 10:17:00,
2013-01-13 05:23:00,55.0,54.2,30.08,SSW,202,0.0,0.0,97,0.00,,,0.01,Wunderground v.1.15,2013-01-13 10:23:00,
2013-01-13 05:28:00,55.1,54.5,30.08,SSW,202,0.0,0.0,98,0.00,,,0.01,Wunderground v.1.15,2013-01-13 10:28:00,
2013-01-13 05:34:00,55.1,54.5,30.08,SSW,202,0.0,0.0,98,0.00,,,0.01,Wunderground v.1.15,2013-01-13 10:34:00,
2013-01-13 05:40:00,55.0,54.4,30.08,SSW,202,0.0,0.0,98,0.00,,,0.01,Wunderground v.1.15,2013-01-13 10:40:00,
2013-01-13 05:46:00,54.9,54.3,30.08,SSW,202,0.0,0.0,98,0.00,,,0.01,Wunderground v.1.15,2013-01-13 10:46:00,
2013-01-13 05:52:00,55.0,54.4,30.08,SSW,202,0.0,0.0,98,0.00,,,0.01,Wunderground v.1.15,2013-01-13 10:52:00,
2013-01-13 05:57:00,54.9,54.3,30.08,SSW,202,0.0,0.0,98,0.00,,,0.01,Wunderground v.1.15,2013-01-13 10:57:00,
2013-01-13 06:03:00,54.6,54.0,30.09,SSW,202,0.0,1.0,98,0.00,,,0.01,Wunderground v.1.15,2013-01-13 11:03:00,
2013-01-13 06:09:00,54.7,54.1,30.09,SSW,202,0.0,1.0,98,0.00,,,0.01,Wunderground v.1.15,2013-01-13 11:09:00,
2013-01-13 06:14:00,54.9,54.3,30.09,SSW,202,0.0,1.0,98,0.00,,,0.01,Wunderground v.1.15,2013-01-13 11:14:00,
2013-01-13 06:20:00,55.0,54.4,30.09,SSW,202,0.0,0.0,98,0.00,,,0.01,Wunderground v.1.15,2013-01-13 11:20:00,
2013-01-13 06:26:00,54.9,54.3,30.10,SSW,202,0.0,0.0,98,0.00,,,0.01,Wunderground v.1.15,2013-01-13 11:26:00,
2013-01-13 06:32:00,54.8,54.2,30.09,SSW,202,0.0,0.0,98,0.00,,,0.01,Wunderground v.1.15,2013-01-13 11:32:00,
2013-01-13 06:38:00,54.5,53.9,30.09,SSW,202,0.0,0.0,98,0.00,,,0.01,Wunderground v.1.15,2013-01-13 11:38:00,
2013-01-13 06:43:00,54.6,54.0,30.09,SSW,202,0.0,0.0,98,0.00,,,0.01,Wunderground v.1.15,2013-01-13 11:43:00,
2013-01-13 06:49:00,54.8,54.2,30.09,SSW,202,0.0,0.0,98,0.00,,,0.01,Wunderground v.1.15,2013-01-13 11:49:00,
2013-01-13 06:55:00,55.0,54.4,30.10,SSW,202,0.0,0.0,98,0.00,,,0.01,Wunderground v.1.15,2013-01-13 11:55:00,
2013-01-13 07:00:00,55.0,54.4,30.10,SSW,202,0.0,0.0,98,0.00,,,0.01,Wunderground v.1.15,2013-01-13 12:00:00,
2013-01-13 07:06:00,55.1,54.5,30.10,SSW,202,0.0,0.0,98,0.00,,,0.01,Wunderground v.1.15,2013-01-13 12:06:00,
2013-01-13 07:12:00,55.2,54.6,30.10,SSW,202,0.0,0.0,98,0.00,,,0.01,Wunderground v.1.15,2013-01-13 12:12:00,
2013-01-13 07:18:00,55.2,54.6,30.11,SSW,202,0.0,0.0,98,0.00,,,0.01,Wunderground v.1.15,2013-01-13 12:18:00,
2013-01-13 07:23:00,55.3,54.7,30.11,SSW,202,0.0,0.0,98,0.00,,,0.01,Wunderground v.1.15,2013-01-13 12:23:00,
2013-01-13 07:29:00,55.1,54.5,30.11,SSW,202,0.0,1.0,98,0.00,,,0.01,Wunderground v.1.15,2013-01-13 12:29:00,
2013-01-13 07:35:00,55.3,54.7,30.11,SSW,202,0.0,0.0,98,0.00,,,0.01,Wunderground v.1.15,2013-01-13 12:35:00,
2013-01-13 07:41:00,55.4,54.8,30.10,SSW,202,0.0,0.0,98,0.00,,,0.01,Wunderground v.1.15,2013-01-13 12:41:00,
2013-01-13 07:46:00,55.4,54.8,30.11,SSW,202,0.0,0.0,98,0.00,,,0.01,Wunderground v.1.15,2013-01-13 12:46:00,
2013-01-13 07:52:00,55.4,54.8,30.11,SSW,202,0.0,0.0,98,0.00,,,0.01,Wunderground v.1.15,2013-01-13 12:52:00,
2013-01-13 07:58:00,55.2,54.6,30.11,SSW,202,0.0,0.0,98,0.00,,,0.01,Wunderground v.1.15,2013-01-13 12:58:00,
2013-01-13 08:04:00,55.1,54.5,30.11,SSW,202,0.0,0.0,98,0.00,,,0.01,Wunderground v.1.15,2013-01-13 13:04:00,
2013-01-13 08:09:00,55.0,54.4,30.11,SSW,202,0.0,0.0,98,0.00,,,0.01,Wunderground v.1.15,2013-01-13 13:09:00,
2013-01-13 08:15:00,55.0,54.4,30.11,SSW,202,0.0,0.0,98,0.00,,,0.01,Wunderground v.1.15,2013-01-13 13:15:00,
2013-01-13 08:21:00,55.1,54.5,30.12,SSW,209,0.0,0.0,98,0.00,,,0.01,Wunderground v.1.15,2013-01-13 13:21:00,
2013-01-13 08:27:00,55.4,54.8,30.12,SSW,209,0.0,0.0,98,0.00,,,0.01,Wunderground v.1.15,2013-01-13 13:27:00,
2013-01-13 08:33:00,55.6,55.0,30.12,SSW,209,0.0,0.0,98,0.00,,,0.01,Wunderground v.1.15,2013-01-13 13:33:00,
2013-01-13 08:38:00,56.0,55.4,30.12,SSW,209,0.0,0.0,98,0.00,,,0.01,Wunderground v.1.15,2013-01-13 13:38:00,
2013-01-13 08:44:00,56.7,56.1,30.11,SSE,153,1.0,2.0,98,0.00,,,0.01,Wunderground v.1.15,2013-01-13 13:44:00,
2013-01-13 08:50:00,57.1,56.5,30.11,SSE,153,1.0,1.0,98,0.00,,,0.01,Wunderground v.1.15,2013-01-13 13:50:00,
2013-01-13 08:56:00,57.8,57.2,30.11,South,171,2.0,5.0,98,0.00,,,0.01,Wunderground v.1.15,2013-01-13 13:56:00,
2013-01-13 09:02:00,58.8,58.2,30.11,SSE,158,3.0,7.0,98,0.00,,,0.01,Wunderground v.1.15,2013-01-13 14:02:00,
2013-01-13 09:07:00,59.5,58.9,30.11,SSW,200,5.0,7.0,98,0.00,,,0.01,Wunderground v.1.15,2013-01-13 14:07:00,
2013-01-13 09:13:00,59.9,59.3,30.12,South,191,6.0,11.0,98,0.00,,,0.01,Wunderground v.1.15,2013-01-13 14:13:00,
2013-01-13 09:19:00,59.8,59.2,30.12,SSW,206,7.0,11.0,98,0.00,,,0.01,Wunderground v.1.15,2013-01-13 14:19:00,
2013-01-13 09:25:00,60.0,59.4,30.12,SSW,207,7.0,9.0,98,0.00,,,0.01,Wunderground v.1.15,2013-01-13 14:25:00,
2013-01-13 09:30:00,60.2,59.6,30.12,SSW,194,7.0,8.0,98,0.00,,,0.01,Wunderground v.1.15,2013-01-13 14:30:00,
2013-01-13 09:36:00,60.4,59.8,30.13,SSW,213,8.0,11.0,98,0.00,,,0.01,Wunderground v.1.15,2013-01-13 14:36:00,
2013-01-13 09:42:00,60.6,59.7,30.13,South,189,7.0,8.0,97,0.00,,,0.01,Wunderground v.1.15,2013-01-13 14:42:00,
2013-01-13 09:48:00,60.8,59.7,30.13,SSW,208,6.0,8.0,96,0.00,,,0.01,Wunderground v.1.15,2013-01-13 14:48:00,
2013-01-13 09:53:00,61.0,59.6,30.13,SSW,204,6.0,8.0,95,0.00,,,0.01,Wunderground v.1.15,2013-01-13 14:53:00,
2013-01-13 09:59:00,61.2,59.5,30.13,SW,220,6.0,8.0,94,0.00,,,0.01,Wunderground v.1.15,2013-01-13 14:59:00,
2013-01-13 10:05:00,61.6,59.9,30.13,SW,224,5.0,7.0,94,0.00,,,0.01,Wunderground v.1.15,2013-01-13 15:05:00,
2013-01-13 10:11:00,62.1,60.1,30.13,SW,224,5.0,5.0,93,0.00,,,0.01,Wunderground v.1.15,2013-01-13 15:11:00,
2013-01-13 10:16:00,62.7,60.3,30.13,SW,228,5.0,6.0,92,0.00,,,0.01,Wunderground v.1.15,2013-01-13 15:16:00,
2013-01-13 10:22:00,63.4,60.7,30.13,SW,224,5.0,5.0,91,0.00,,,0.01,Wunderground v.1.15,2013-01-13 15:22:00,
2013-01-13 10:28:00,64.3,60.7,30.12,SW,227,6.0,8.0,88,0.00,,,0.01,Wunderground v.1.15,2013-01-13 15:28:00,
2013-01-13 10:34:00,64.9,60.9,30.12,SW,221,7.0,11.0,87,0.00,,,0.01,Wunderground v.1.15,2013-01-13 15:34:00,
2013-01-13 10:39:00,65.2,60.9,30.12,SW,220,8.0,11.0,86,0.00,,,0.01,Wunderground v.1.15,2013-01-13 15:39:00,
2013-01-13 10:45:00,65.1,60.5,30.11,SW,215,8.0,11.0,85,0.00,,,0.01,Wunderground v.1.15,2013-01-13 15:45:00,
2013-01-13 10:51:00,66.1,61.1,30.11,SW,232,8.0,8.0,84,0.00,,,0.02,Wunderground v.1.15,2013-01-13 15:51:00,
2013-01-13 10:56:00,66.9,61.9,30.11,WSW,250,8.0,10.0,84,0.00,,,0.02,Wunderground v.1.15,2013-01-13 15:56:00,
2013-01-13 11:02:00,67.8,61.8,30.11,SW,234,8.0,11.0,81,0.00,,,0.02,Wunderground v.1.15,2013-01-13 16:02:00,
2013-01-13 11:08:00,68.2,61.8,30.11,SW,234,9.0,15.0,80,0.00,,,0.02,Wunderground v.1.15,2013-01-13 16:08:00,
2013-01-13 11:14:00,68.5,61.7,30.10,SW,216,10.0,13.0,79,0.00,,,0.02,Wunderground v.1.15,2013-01-13 16:14:00,
2013-01-13 11:19:00,69.1,61.9,30.10,WSW,250,9.0,13.0,78,0.00,,,0.02,Wunderground v.1.15,2013-01-13 16:19:00,
2013-01-13 11:25:00,69.1,61.6,30.10,WSW,255,10.0,12.0,77,0.00,,,0.02,Wunderground v.1.15,2013-01-13 16:25:00,
2013-01-13 11:31:00,69.5,61.6,30.09,SW,228,11.0,11.0,76,0.00,,,0.02,Wunderground v.1.15,2013-01-13 16:31:00,
2013-01-13 11:37:00,69.8,61.9,30.09,SSW,200,11.0,15.0,76,0.00,,,0.02,Wunderground v.1.15,2013-01-13 16:37:00,
2013-01-13 11:43:00,70.2,61.5,30.08,West,259,10.0,11.0,74,0.00,,,0.02,Wunderground v.1.15,2013-01-13 16:43:00,
2013-01-13 11:48:00,70.5,61.8,30.08,SW,225,9.0,11.0,74,0.00,,,0.02,Wunderground v.1.15,2013-01-13 16:48:00,
2013-01-13 11:54:00,70.8,61.7,30.08,SSW,207,9.0,13.0,73,0.00,,,0.02,Wunderground v.1.15,2013-01-13 16:54:00,
2013-01-13 12:00:00,70.7,61.6,30.08,SW,227,10.0,10.0,73,0.00,,,0.02,Wunderground v.1.15,2013-01-13 17:00:00,
2013-01-13 12:06:00,70.7,61.6,30.08,SW,219,10.0,12.0,73,0.00,,,0.02,Wunderground v.1.15,2013-01-13 17:06:00,
2013-01-13 12:11:00,71.1,62.0,30.07,SW,217,10.0,10.0,73,0.00,,,0.02,Wunderground v.1.15,2013-01-13 17:11:00,
2013-01-13 12:17:00,71.7,61.8,30.07,SW,223,10.0,13.0,71,0.00,,,0.02,Wunderground v.1.15,2013-01-13 17:17:00,
2013-01-13 12:23:00,71.9,61.6,30.07,SSW,211,10.0,12.0,70,0.00,,,0.02,Wunderground v.1.15,2013-01-13 17:23:00,
2013-01-13 12:28:00,72.2,61.9,30.06,WSW,245,11.0,13.0,70,0.00,,,0.02,Wunderground v.1.15,2013-01-13 17:28:00,
2013-01-13 12:34:00,72.5,61.7,30.06,SW,229,10.0,12.0,69,0.00,,,0.02,Wunderground v.1.15,2013-01-13 17:34:00,
2013-01-13 12:40:00,73.5,62.3,30.06,South,190,8.0,8.0,68,0.00,,,0.02,Wunderground v.1.15,2013-01-13 17:40:00,
2013-01-13 12:45:00,73.5,61.4,30.06,SW,233,8.0,9.0,66,0.00,,,0.02,Wunderground v.1.15,2013-01-13 17:45:00,
2013-01-13 12:51:00,73.6,62.0,30.06,SSW,200,9.0,13.0,67,0.00,,,0.02,Wunderground v.1.15,2013-01-13 17:51:00,
2013-01-13 12:57:00,73.5,61.4,30.06,SSW,207,11.0,13.0,66,0.00,,,0.02,Wunderground v.1.15,2013-01-13 17:57:00,
2013-01-13 13:03:00,72.9,60.9,30.05,SW,217,12.0,12.0,66,0.00,,,0.02,Wunderground v.1.15,2013-01-13 18:03:00,
2013-01-13 13:09:00,72.6,61.0,30.05,SW,225,12.0,17.0,67,0.00,,,0.02,Wunderground v.1.15,2013-01-13 18:09:00,
2013-01-13 13:14:00,72.2,61.0,30.05,WSW,238,12.0,13.0,68,0.00,,,0.02,Wunderground v.1.15,2013-01-13 18:14:00,
2013-01-13 13:20:00,72.1,61.0,30.05,SW,221,11.0,11.0,68,0.00,,,0.02,Wunderground v.1.15,2013-01-13 18:20:00,
2013-01-13 13:26:00,72.1,61.0,30.05,SSW,209,12.0,14.0,68,0.00,,,0.02,Wunderground v.1.15,2013-01-13 18:26:00,
2013-01-13 13:32:00,71.9,60.8,30.05,SW,226,12.0,12.0,68,0.00,,,0.02,Wunderground v.1.15,2013-01-13 18:32:00,
2013-01-13 13:37:00,72.2,61.5,30.05,SSW,213,11.0,12.0,69,0.00,,,0.02,Wunderground v.1.15,2013-01-13 18:37:00,
2013-01-13 13:43:00,72.5,61.3,30.05,South,184,8.0,10.0,68,0.00,,,0.02,Wunderground v.1.15,2013-01-13 18:43:00,
2013-01-13 13:49:00,72.1,61.4,30.05,SSW,199,8.0,10.0,69,0.00,,,0.02,Wunderground v.1.15,2013-01-13 18:49:00,
2013-01-13 13:55:00,72.1,61.4,30.05,SW,216,8.0,8.0,69,0.00,,,0.02,Wunderground v.1.15,2013-01-13 18:55:00,
2013-01-13 14:00:00,72.0,61.3,30.05,WSW,245,7.0,9.0,69,0.00,,,0.02,Wunderground v.1.15,2013-01-13 19:00:00,
2013-01-13 14:05:00,72.0,61.3,30.04,SW,219,7.0,10.0,69,0.00,,,0.02,Wunderground v.1.15,2013-01-13 19:05:00,
2013-01-13 14:11:00,72.3,61.6,30.05,SW,221,6.0,8.0,69,0.00,,,0.02,Wunderground v.1.15,2013-01-13 19:11:00,
2013-01-13 14:16:00,72.4,61.2,30.05,SSW,200,7.0,10.0,68,0.00,,,0.02,Wunderground v.1.15,2013-01-13 19:16:00,
2013-01-13 14:22:00,72.7,61.1,30.05,SW,221,8.0,12.0,67,0.00,,,0.02,Wunderground v.1.15,2013-01-13 19:22:00,
2013-01-13 14:28:00,72.7,61.5,30.05,South,176,8.0,12.0,68,0.00,,,0.02,Wunderground v.1.15,2013-01-13 19:28:00,
2013-01-13 14:34:00,72.4,61.2,30.05,SW,229,7.0,9.0,68,0.00,,,0.02,Wunderground v.1.15,2013-01-13 19:34:00,
2013-01-13 14:40:00,72.9,61.7,30.05,SSW,209,8.0,8.0,68,0.00,,,0.02,Wunderground v.1.15,2013-01-13 19:40:00,
2013-01-13 14:45:00,73.7,61.6,30.05,SW,218,9.0,10.0,66,0.00,,,0.02,Wunderground v.1.15,2013-01-13 19:45:00,
2013-01-13 14:51:00,73.6,61.5,30.05,SSW,213,9.0,10.0,66,0.00,,,0.02,Wunderground v.1.15,2013-01-13 19:51:00,
2013-01-13 14:57:00,72.9,61.3,30.05,SSW,209,10.0,15.0,67,0.00,,,0.02,Wunderground v.1.15,2013-01-13 19:57:00,
2013-01-13 15:03:00,73.4,61.3,30.05,SW,221,8.0,10.0,66,0.00,,,0.02,Wunderground v.1.15,2013-01-13 20:03:00,
2013-01-13 15:08:00,73.5,61.4,30.05,WSW,237,8.0,10.0,66,0.00,,,0.02,Wunderground v.1.15,2013-01-13 20:08:00,
2013-01-13 15:14:00,72.9,61.3,30.05,SSW,205,8.0,9.0,67,0.00,,,0.02,Wunderground v.1.15,2013-01-13 20:14:00,
2013-01-13 15:20:00,73.4,61.3,30.05,South,171,7.0,8.0,66,0.00,,,0.02,Wunderground v.1.15,2013-01-13 20:20:00,
2013-01-13 15:26:00,73.5,61.4,30.05,SSE,160,7.0,8.0,66,0.00,,,0.02,Wunderground v.1.15,2013-01-13 20:26:00,
2013-01-13 15:32:00,73.1,61.1,30.05,SW,219,7.0,7.0,66,0.00,,,0.02,Wunderground v.1.15,2013-01-13 20:32:00,
2013-01-13 15:38:00,72.7,60.7,30.05,SW,228,8.0,12.0,66,0.00,,,0.02,Wunderground v.1.15,2013-01-13 20:38:00,
2013-01-13 15:43:00,72.5,61.3,30.06,SSW,200,7.0,8.0,68,0.00,,,0.02,Wunderground v.1.15,2013-01-13 20:43:00,
2013-01-13 15:49:00,72.4,61.2,30.05,South,184,6.0,9.0,68,0.00,,,0.02,Wunderground v.1.15,2013-01-13 20:49:00,
2013-01-13 15:55:00,72.3,61.6,30.05,SSW,192,8.0,8.0,69,0.00,,,0.02,Wunderground v.1.15,2013-01-13 20:55:00,
2013-01-13 16:00:00,72.4,61.2,30.05,SSW,209,8.0,8.0,68,0.00,,,0.02,Wunderground v.1.15,2013-01-13 21:00:00,
2013-01-13 16:06:00,72.3,61.6,30.06,SSW,200,7.0,9.0,69,0.00,,,0.02,Wunderground v.1.15,2013-01-13 21:06:00,
2013-01-13 16:12:00,72.1,61.4,30.06,SSW,198,7.0,8.0,69,0.00,,,0.02,Wunderground v.1.15,2013-01-13 21:12:00,
2013-01-13 16:18:00,71.9,61.6,30.06,SSW,196,6.0,8.0,70,0.00,,,0.02,Wunderground v.1.15,2013-01-13 21:18:00,
2013-01-13 16:23:00,72.0,61.7,30.06,South,189,5.0,7.0,70,0.00,,,0.02,Wunderground v.1.15,2013-01-13 21:23:00,
2013-01-13 16:29:00,72.1,61.8,30.07,SSW,212,6.0,7.0,70,0.00,,,0.02,Wunderground v.1.15,2013-01-13 21:29:00,
2013-01-13 16:35:00,72.3,61.6,30.07,South,179,7.0,10.0,69,0.00,,,0.02,Wunderground v.1.15,2013-01-13 21:35:00,
2013-01-13 16:41:00,72.2,61.5,30.06,SSW,199,8.0,10.0,69,0.00,,,0.02,Wunderground v.1.15,2013-01-13 21:41:00,
2013-01-13 16:47:00,71.7,61.4,30.06,SSW,205,7.0,10.0,70,0.00,,,0.02,Wunderground v.1.15,2013-01-13 21:47:00,
2013-01-13 16:53:00,71.2,61.3,30.07,South,188,6.0,6.0,71,0.00,,,0.02,Wunderground v.1.15,2013-01-13 21:53:00,
2013-01-13 16:58:00,71.0,61.1,30.07,South,185,5.0,6.0,71,0.00,,,0.02,Wunderground v.1.15,2013-01-13 21:58:00,
2013-01-13 17:04:00,70.7,60.8,30.07,SSW,195,5.0,6.0,71,0.00,,,0.02,Wunderground v.1.15,2013-01-13 22:04:00,
2013-01-13 17:10:00,70.3,60.8,30.06,South,188,4.0,4.0,72,0.00,,,0.02,Wunderground v.1.15,2013-01-13 22:10:00,
2013-01-13 17:16:00,69.8,60.8,30.06,SSW,207,3.0,4.0,73,0.00,,,0.02,Wunderground v.1.15,2013-01-13 22:16:00,
2013-01-13 17:21:00,69.6,60.9,30.06,South,190,3.0,3.0,74,0.00,,,0.02,Wunderground v.1.15,2013-01-13 22:21:00,
2013-01-13 17:27:00,69.2,60.6,30.06,South,187,2.0,3.0,74,0.00,,,0.02,Wunderground v.1.15,2013-01-13 22:27:00,
2013-01-13 17:33:00,68.9,60.6,30.06,South,188,2.0,3.0,75,0.00,,,0.02,Wunderground v.1.15,2013-01-13 22:33:00,
2013-01-13 17:39:00,68.6,60.4,30.06,South,169,2.0,5.0,75,0.00,,,0.02,Wunderground v.1.15,2013-01-13 22:39:00,
2013-01-13 17:44:00,68.5,60.6,30.06,South,169,2.0,4.0,76,0.00,,,0.02,Wunderground v.1.15,2013-01-13 22:44:00,
2013-01-13 17:50:00,68.1,60.2,30.06,South,169,1.0,1.0,76,0.00,,,0.02,Wunderground v.1.15,2013-01-13 22:50:00,
2013-01-13 17:56:00,67.5,60.0,30.06,South,169,0.0,2.0,77,0.00,,,0.02,Wunderground v.1.15,2013-01-13 22:56:00,
2013-01-13 18:02:00,67.0,59.9,30.06,South,169,1.0,2.0,78,0.00,,,0.02,Wunderground v.1.15,2013-01-13 23:02:00,
2013-01-13 18:07:00,66.7,60.0,30.06,South,184,2.0,4.0,79,0.00,,,0.02,Wunderground v.1.15,2013-01-13 23:07:00,
2013-01-13 18:13:00,66.5,59.8,30.06,South,184,2.0,2.0,79,0.00,,,0.02,Wunderground v.1.15,2013-01-13 23:13:00,
2013-01-13 18:19:00,66.5,59.8,30.06,SSW,209,2.0,4.0,79,0.00,,,0.02,Wunderground v.1.15,2013-01-13 23:19:00,
2013-01-13 18:25:00,66.3,59.9,30.07,SSW,211,2.0,4.0,80,0.00,,,0.02,Wunderground v.1.15,2013-01-13 23:25:00,
2013-01-13 18:31:00,65.9,59.6,30.06,SSW,198,2.0,2.0,80,0.00,,,0.02,Wunderground v.1.15,2013-01-13 23:31:00,
2013-01-13 18:36:00,65.9,59.9,30.07,SSW,199,3.0,5.0,81,0.00,,,0.02,Wunderground v.1.15,2013-01-13 23:36:00,
2013-01-13 18:42:00,65.9,59.6,30.07,South,172,4.0,4.0,80,0.00,,,0.02,Wunderground v.1.15,2013-01-13 23:42:00,
2013-01-13 18:48:00,65.9,59.9,30.07,South,189,4.0,5.0,81,0.00,,,0.02,Wunderground v.1.15,2013-01-13 23:48:00,
2013-01-13 18:54:00,66.0,60.0,30.07,South,183,3.0,3.0,81,0.00,,,0.02,Wunderground v.1.15,2013-01-13 23:54:00,
2013-01-13 19:00:00,65.9,59.9,30.07,South,191,3.0,3.0,81,0.00,,,0.02,Wunderground v.1.15,2013-01-14 00:00:00,
2013-01-13 19:06:00,65.8,59.8,30.06,SSW,202,3.0,6.0,81,0.00,,,0.02,Wunderground v.1.15,2013-01-14 00:06:00,
2013-01-13 19:11:00,65.8,59.8,30.06,South,188,3.0,3.0,81,0.00,,,0.02,Wunderground v.1.15,2013-01-14 00:11:00,
2013-01-13 19:17:00,65.7,59.7,30.06,SSW,194,3.0,4.0,81,0.00,,,0.02,Wunderground v.1.15,2013-01-14 00:17:00,
2013-01-13 19:23:00,65.5,59.5,30.06,SSW,205,3.0,4.0,81,0.00,,,0.02,Wunderground v.1.15,2013-01-14 00:23:00,
2013-01-13 19:29:00,65.3,59.7,30.05,South,186,3.0,4.0,82,0.00,,,0.02,Wunderground v.1.15,2013-01-14 00:29:00,
2013-01-13 19:34:00,65.3,59.7,30.05,South,183,3.0,7.0,82,0.00,,,0.02,Wunderground v.1.15,2013-01-14 00:34:00,
2013-01-13 19:40:00,65.2,59.6,30.06,South,183,3.0,3.0,82,0.00,,,0.02,Wunderground v.1.15,2013-01-14 00:40:00,
2013-01-13 19:46:00,64.9,59.6,30.06,SSW,201,3.0,4.0,83,0.00,,,0.02,Wunderground v.1.15,2013-01-14 00:46:00,
2013-01-13 19:52:00,65.0,59.7,30.05,South,190,4.0,6.0,83,0.00,,,0.02,Wunderground v.1.15,2013-01-14 00:52:00,
2013-01-13 19:57:00,65.0,59.7,30.06,SW,216,5.0,7.0,83,0.00,,,0.02,Wunderground v.1.15,2013-01-14 00:57:00,
2013-01-13 20:03:00,64.7,59.4,30.06,SSW,197,5.0,5.0,83,0.00,,,0.02,Wunderground v.1.15,2013-01-14 01:03:00,
2013-01-13 20:09:00,64.5,59.6,30.06,SSW,208,5.0,7.0,84,0.00,,,0.02,Wunderground v.1.15,2013-01-14 01:09:00,
2013-01-13 20:15:00,64.6,59.7,30.06,South,185,5.0,7.0,84,0.00,,,0.02,Wunderground v.1.15,2013-01-14 01:15:00,
2013-01-13 20:21:00,64.6,59.3,30.05,SSW,196,5.0,6.0,83,0.00,,,0.02,Wunderground v.1.15,2013-01-14 01:21:00,
2013-01-13 20:27:00,64.6,59.7,30.05,SSW,194,6.0,8.0,84,0.00,,,0.02,Wunderground v.1.15,2013-01-14 01:27:00,
2013-01-13 20:33:00,64.8,59.5,30.05,SSW,202,7.0,7.0,83,0.00,,,0.02,Wunderground v.1.15,2013-01-14 01:33:00,
2013-01-13 20:38:00,64.5,59.6,30.05,SSW,197,6.0,7.0,84,0.00,,,0.02,Wunderground v.1.15,2013-01-14 01:38:00,
2013-01-13 20:44:00,64.4,59.5,30.05,SW,214,6.0,7.0,84,0.00,,,0.02,Wunderground v.1.15,2013-01-14 01:44:00,
2013-01-13 20:50:00,64.7,59.8,30.05,SSW,193,7.0,10.0,84,0.00,,,0.02,Wunderground v.1.15,2013-01-14 01:50:00,
2013-01-13 20:56:00,65.2,59.9,30.05,SSW,193,8.0,11.0,83,0.00,,,0.02,Wunderground v.1.15,2013-01-14 01:56:00,
2013-01-13 21:02:00,65.3,59.7,30.05,SSW,205,8.0,9.0,82,0.00,,,0.02,Wunderground v.1.15,2013-01-14 02:02:00,
2013-01-13 21:07:00,65.3,60.0,30.05,SW,215,9.0,9.0,83,0.00,,,0.02,Wunderground v.1.15,2013-01-14 02:07:00,